Time;durP1;ratioP1;P1;durP2;ratioP2;P2;SDS_P1;SDS_P2;PMS_P1;PMS_P2;Temp;Humidity;BMP_temperature;BMP_pressure;BME280_temperature;BME280_humidity;BME280_pressure;Samples;Min_cycle;Max_cycle;Signal;HPM_P1;HPM_P2
2022/10/14 00:00:25;;;;;;;;;17.00;14.00;;;;;;;;5019022;28;45223;-68
2022/10/14 00:02:51;;;;;;;;;15.67;15.67;;;;;;;;5018374;28;46359;-69
2022/10/14 00:05:16;;;;;;;;;19.00;14.67;;;;;;;;5017594;28;45373;-69
2022/10/14 00:07:42;;;;;;;;;16.67;15.00;;;;;;;;5018721;28;45310;-69
2022/10/14 00:10:07;;;;;;;;;17.67;16.00;;;;;;;;5018880;28;45560;-69
2022/10/14 00:12:33;;;;;;;;;17.33;17.33;;;;;;;;5018407;28;46372;-68
2022/10/14 00:14:58;;;;;;;;;14.67;14.33;;;;;;;;5018465;28;45441;-69
2022/10/14 00:17:23;;;;;;;;;11.50;11.25;;;;;;;;5018810;28;45294;-69
2022/10/14 00:19:48;;;;;;;;;6.00;6.00;;;;;;;;5016339;28;45152;-68
2022/10/14 00:22:14;;;;;;;;;16.00;12.25;;;;;;;;5018585;28;45446;-69
2022/10/14 00:24:39;;;;;;;;;15.67;14.33;;;;;;;;5017046;28;45310;-68
2022/10/14 00:27:04;;;;;;;;;14.25;12.75;;;;;;;;5018343;28;45361;-69
2022/10/14 00:29:29;;;;;;;;;18.67;15.33;;;;;;;;5018595;28;45383;-68
2022/10/14 00:31:54;;;;;;;;;17.00;14.00;;;;;;;;5018176;28;46477;-68
2022/10/14 00:34:20;;;;;;;;;15.67;14.00;;;;;;;;5016702;28;45408;-68
2022/10/14 00:36:45;;;;;;;;;22.67;22.67;;;;;;;;5016436;28;45463;-67
2022/10/14 00:39:11;;;;;;;;;20.67;16.67;;;;;;;;5015275;28;45404;-67
2022/10/14 00:41:36;;;;;;;;;15.33;13.67;;;;;;;;5004660;28;46708;-67
2022/10/14 00:44:25;;;;;;;;;20.33;14.33;;;;;;;;4999653;28;46254;-67
2022/10/14 00:46:50;;;;;;;;;20.00;17.75;;;;;;;;5014011;28;45580;-66
2022/10/14 00:49:26;;;;;;;;;19.67;15.67;;;;;;;;5004336;28;45783;-66
2022/10/14 00:52:03;;;;;;;;;16.25;15.50;;;;;;;;5006542;28;45528;-66
2022/10/14 00:54:34;;;;;;;;;18.67;17.33;;;;;;;;4995844;28;45291;-66
2022/10/14 00:57:00;;;;;;;;;17.67;14.67;;;;;;;;5009336;28;45785;-67
2022/10/14 00:59:26;;;;;;;;;23.67;20.00;;;;;;;;4996328;28;45284;-66
2022/10/14 01:01:51;;;;;;;;;19.00;17.33;;;;;;;;5005243;28;46418;-67
2022/10/14 01:04:16;;;;;;;;;21.33;17.67;;;;;;;;5012573;28;45410;-67
2022/10/14 01:07:00;;;;;;;;;16.67;15.67;;;;;;;;5015268;28;45543;-67
2022/10/14 01:09:35;;;;;;;;;23.33;15.00;;;;;;;;5015574;28;45417;-67
2022/10/14 01:12:12;;;;;;;;;17.67;16.00;;;;;;;;5014091;28;46253;-67
2022/10/14 01:14:37;;;;;;;;;24.67;18.00;;;;;;;;5015173;28;45469;-67
2022/10/14 01:17:02;;;;;;;;;20.33;19.00;;;;;;;;5015092;28;45553;-67
2022/10/14 01:19:42;;;;;;;;;22.00;18.67;;;;;;;;5015175;28;45488;-66
2022/10/14 01:22:15;;;;;;;;;20.33;18.00;;;;;;;;5014906;28;45708;-67
2022/10/14 01:24:42;;;;;;;;;22.67;19.00;;;;;;;;5017181;28;45256;-67
2022/10/14 01:27:22;;;;;;;;;19.00;18.00;;;;;;;;5016762;28;45403;-67
2022/10/14 01:30:02;;;;;;;;;18.67;17.00;;;;;;;;5017516;28;45381;-67
2022/10/14 01:32:27;;;;;;;;;21.33;16.67;;;;;;;;5006901;28;46240;-66
2022/10/14 01:35:05;;;;;;;;;22.33;20.00;;;;;;;;5017065;28;45374;-67
2022/10/14 01:37:32;;;;;;;;;20.33;18.67;;;;;;;;5017147;28;45412;-67
2022/10/14 01:40:05;;;;;;;;;18.33;18.00;;;;;;;;5017147;28;45705;-67
2022/10/14 01:42:33;;;;;;;;;20.33;17.33;;;;;;;;5016619;28;46444;-67
2022/10/14 01:45:01;;;;;;;;;23.00;20.67;;;;;;;;5016807;28;45278;-66
2022/10/14 01:47:28;;;;;;;;;21.33;20.67;;;;;;;;5015916;28;45366;-66
2022/10/14 01:49:58;;;;;;;;;25.00;21.00;;;;;;;;5015487;28;45585;-67
2022/10/14 01:52:26;;;;;;;;;23.33;19.00;;;;;;;;5016729;28;46585;-66
2022/10/14 01:54:54;;;;;;;;;21.33;19.67;;;;;;;;5016717;28;45278;-66
2022/10/14 01:57:23;;;;;;;;;25.67;21.00;;;;;;;;5016683;28;45594;-68
2022/10/14 01:59:49;;;;;;;;;25.00;21.33;;;;;;;;5016958;28;45463;-67
2022/10/14 02:02:14;;;;;;;;;27.00;21.33;;;;;;;;5016538;28;45348;-67
2022/10/14 02:04:39;;;;;;;;;26.33;23.33;;;;;;;;5015646;28;46924;-66
2022/10/14 02:07:08;;;;;;;;;28.00;24.67;;;;;;;;5016015;28;45212;-66
2022/10/14 02:09:39;;;;;;;;;18.00;17.33;;;;;;;;5017257;28;45407;-66
2022/10/14 02:12:04;;;;;;;;;20.67;20.00;;;;;;;;5015879;28;47124;-67
2022/10/14 02:14:38;;;;;;;;;21.67;19.33;;;;;;;;5016470;28;45358;-67
2022/10/14 02:17:30;;;;;;;;;24.67;20.67;;;;;;;;5016368;28;45270;-67
2022/10/14 02:20:07;;;;;;;;;21.33;21.33;;;;;;;;5003137;28;45456;-67
2022/10/14 02:22:44;;;;;;;;;23.67;21.00;;;;;;;;5008362;28;45318;-67
2022/10/14 02:25:16;;;;;;;;;28.67;23.00;;;;;;;;5016105;28;45345;-67
2022/10/14 02:27:43;;;;;;;;;21.00;18.00;;;;;;;;5016039;28;45516;-67
2022/10/14 02:30:09;;;;;;;;;30.00;24.67;;;;;;;;5016412;28;45432;-67
2022/10/14 02:32:36;;;;;;;;;29.33;21.33;;;;;;;;5015722;28;47341;-67
2022/10/14 02:35:02;;;;;;;;;22.33;20.67;;;;;;;;5016473;28;45376;-67
2022/10/14 02:37:28;;;;;;;;;23.67;19.33;;;;;;;;5015193;28;45471;-68
2022/10/14 02:39:56;;;;;;;;;25.67;21.33;;;;;;;;5016103;28;45349;-68
2022/10/14 02:42:21;;;;;;;;;23.67;21.33;;;;;;;;5015741;28;46164;-67
2022/10/14 02:44:54;;;;;;;;;25.33;20.00;;;;;;;;5016069;28;45700;-67
2022/10/14 02:47:20;;;;;;;;;22.67;20.67;;;;;;;;5018682;28;45351;-67
2022/10/14 02:49:45;;;;;;;;;25.67;22.00;;;;;;;;5022865;28;45506;-66
2022/10/14 02:52:10;;;;;;;;;21.33;19.67;;;;;;;;5024763;28;46435;-67
2022/10/14 02:54:36;;;;;;;;;19.00;18.33;;;;;;;;5015991;28;45462;-66
2022/10/14 02:57:01;;;;;;;;;19.67;16.67;;;;;;;;5015023;28;45526;-67
2022/10/14 02:59:26;;;;;;;;;26.67;21.33;;;;;;;;5018132;28;45256;-67
2022/10/14 03:01:51;;;;;;;;;22.00;19.00;;;;;;;;5019402;28;45378;-67
2022/10/14 03:04:17;;;;;;;;;27.00;21.67;;;;;;;;5019085;28;45238;-67
2022/10/14 03:06:42;;;;;;;;;24.00;20.33;;;;;;;;5019454;28;45302;-67
2022/10/14 03:09:07;;;;;;;;;25.33;21.67;;;;;;;;5019408;28;45199;-67
2022/10/14 03:11:32;;;;;;;;;22.33;21.00;;;;;;;;5017866;28;46454;-67
2022/10/14 03:13:57;;;;;;;;;23.67;21.00;;;;;;;;5019239;28;45277;-67
2022/10/14 03:16:23;;;;;;;;;24.00;21.33;;;;;;;;5019390;28;45528;-67
2022/10/14 03:18:48;;;;;;;;;22.00;22.00;;;;;;;;5019487;28;45293;-67
2022/10/14 03:21:13;;;;;;;;;23.00;21.67;;;;;;;;5018933;28;46294;-67
2022/10/14 03:23:38;;;;;;;;;27.33;24.00;;;;;;;;5017343;28;45684;-67
2022/10/14 03:26:03;;;;;;;;;28.67;25.00;;;;;;;;5019346;28;45334;-67
2022/10/14 03:28:29;;;;;;;;;24.33;22.67;;;;;;;;5019198;28;45282;-68
2022/10/14 03:30:54;;;;;;;;;30.33;27.67;;;;;;;;5001564;28;46117;-66
2022/10/14 03:33:19;;;;;;;;;30.67;24.67;;;;;;;;4999352;28;45277;-67
2022/10/14 03:35:44;;;;;;;;;29.33;25.67;;;;;;;;4999480;28;45388;-66
2022/10/14 03:38:09;;;;;;;;;27.33;25.33;;;;;;;;4999732;28;45252;-67
2022/10/14 03:40:35;;;;;;;;;28.00;26.00;;;;;;;;5010863;28;46473;-66
2022/10/14 03:43:00;;;;;;;;;30.33;25.67;;;;;;;;5018602;28;45162;-66
2022/10/14 03:45:27;;;;;;;;;29.00;25.33;;;;;;;;5018775;28;45216;-67
2022/10/14 03:47:52;;;;;;;;;31.67;28.33;;;;;;;;5018664;28;45527;-66
2022/10/14 03:50:17;;;;;;;;;30.67;23.67;;;;;;;;5018576;28;45518;-66
2022/10/14 03:52:42;;;;;;;;;35.67;29.33;;;;;;;;5018482;28;45474;-66
2022/10/14 03:55:08;;;;;;;;;38.00;32.33;;;;;;;;5018851;28;45310;-67
2022/10/14 03:57:33;;;;;;;;;26.33;24.00;;;;;;;;5018820;28;45728;-66
2022/10/14 03:59:58;;;;;;;;;35.33;29.33;;;;;;;;5017235;28;46550;-67
2022/10/14 04:02:23;;;;;;;;;34.33;28.00;;;;;;;;5018345;28;45575;-66
2022/10/14 04:04:49;;;;;;;;;34.00;29.33;;;;;;;;5018463;28;45676;-67
2022/10/14 04:07:14;;;;;;;;;30.33;28.00;;;;;;;;5018721;28;45364;-67
2022/10/14 04:09:39;;;;;;;;;32.67;27.33;;;;;;;;5018402;28;45435;-67
2022/10/14 04:12:04;;;;;;;;;31.67;26.00;;;;;;;;5017186;28;45797;-67
2022/10/14 04:14:30;;;;;;;;;32.33;28.33;;;;;;;;5016658;28;47019;-66
2022/10/14 04:16:55;;;;;;;;;31.33;28.33;;;;;;;;5018748;28;45499;-67
2022/10/14 04:19:20;;;;;;;;;31.00;26.67;;;;;;;;5018368;28;46346;-67
2022/10/14 04:21:45;;;;;;;;;34.67;30.00;;;;;;;;5018135;28;45488;-67
2022/10/14 04:24:11;;;;;;;;;33.67;29.33;;;;;;;;5018228;28;45306;-67
2022/10/14 04:26:36;;;;;;;;;32.00;30.00;;;;;;;;5018191;28;45431;-67
2022/10/14 04:29:02;;;;;;;;;40.67;30.00;;;;;;;;5016526;28;47424;-67
2022/10/14 04:31:27;;;;;;;;;45.33;34.33;;;;;;;;5017977;28;45162;-67
2022/10/14 04:33:52;;;;;;;;;33.00;29.67;;;;;;;;5018147;28;45419;-66
2022/10/14 04:36:17;;;;;;;;;37.00;33.00;;;;;;;;5018019;28;45386;-67
2022/10/14 04:38:42;;;;;;;;;36.00;30.67;;;;;;;;5017946;28;45516;-67
2022/10/14 04:41:08;;;;;;;;;32.00;30.00;;;;;;;;5017517;28;45307;-67
2022/10/14 04:43:33;;;;;;;;;35.33;31.00;;;;;;;;5018434;28;45221;-68
2022/10/14 04:45:59;;;;;;;;;38.67;33.00;;;;;;;;5016396;28;45218;-67
2022/10/14 04:48:24;;;;;;;;;30.33;27.33;;;;;;;;5017691;28;45486;-67
2022/10/14 04:50:50;;;;;;;;;34.33;27.67;;;;;;;;5017668;28;45296;-66
2022/10/14 04:53:16;;;;;;;;;34.67;28.67;;;;;;;;5017397;28;45561;-67
2022/10/14 04:55:42;;;;;;;;;35.33;31.33;;;;;;;;5018262;28;45416;-67
2022/10/14 04:58:08;;;;;;;;;35.00;30.67;;;;;;;;5017587;28;45444;-67
2022/10/14 05:00:33;;;;;;;;;37.67;32.33;;;;;;;;5017251;28;45628;-67
2022/10/14 05:02:58;;;;;;;;;39.33;31.00;;;;;;;;5016523;28;45347;-67
2022/10/14 05:05:23;;;;;;;;;29.33;28.67;;;;;;;;5017276;28;45351;-66
2022/10/14 05:07:48;;;;;;;;;35.33;30.33;;;;;;;;5017514;28;45471;-67
2022/10/14 05:10:14;;;;;;;;;32.33;29.00;;;;;;;;5017785;28;45542;-67
2022/10/14 05:12:39;;;;;;;;;43.67;33.33;;;;;;;;5017284;28;45285;-67
2022/10/14 05:15:05;;;;;;;;;34.33;28.67;;;;;;;;5017288;28;45420;-67
2022/10/14 05:17:31;;;;;;;;;42.00;32.00;;;;;;;;5015700;28;46304;-67
2022/10/14 05:19:56;;;;;;;;;33.67;30.00;;;;;;;;5017500;28;45849;-67
2022/10/14 05:22:21;;;;;;;;;35.00;32.00;;;;;;;;5015964;28;45395;-68
2022/10/14 05:24:46;;;;;;;;;32.67;27.67;;;;;;;;5017779;28;45494;-67
2022/10/14 05:27:12;;;;;;;;;40.33;31.00;;;;;;;;5016288;28;45342;-72
2022/10/14 05:29:37;;;;;;;;;38.67;31.33;;;;;;;;5017083;28;45367;-71
2022/10/14 05:32:02;;;;;;;;;42.33;31.00;;;;;;;;5017229;28;45186;-68
2022/10/14 05:34:27;;;;;;;;;30.33;27.00;;;;;;;;5015937;28;45415;-69
2022/10/14 05:36:53;;;;;;;;;32.67;32.33;;;;;;;;5016774;28;46319;-68
2022/10/14 05:39:18;;;;;;;;;31.33;29.00;;;;;;;;5016911;28;45508;-63
2022/10/14 05:41:43;;;;;;;;;36.00;30.67;;;;;;;;5017292;28;45369;-63
2022/10/14 05:44:09;;;;;;;;;35.00;28.33;;;;;;;;5017599;28;45297;-63
2022/10/14 05:46:35;;;;;;;;;31.33;29.67;;;;;;;;5011256;28;45649;-64
2022/10/14 05:49:04;;;;;;;;;44.33;34.00;;;;;;;;5001577;28;45447;-64
2022/10/14 05:51:29;;;;;;;;;36.67;33.67;;;;;;;;5000181;28;45469;-66
2022/10/14 05:53:55;;;;;;;;;30.67;26.67;;;;;;;;5016854;28;45506;-66
2022/10/14 05:56:20;;;;;;;;;37.33;30.67;;;;;;;;5016104;28;46526;-66
2022/10/14 05:58:45;;;;;;;;;30.00;25.67;;;;;;;;5016615;28;45451;-65
2022/10/14 06:01:11;;;;;;;;;33.67;29.67;;;;;;;;5016377;28;45202;-65
2022/10/14 06:03:36;;;;;;;;;24.67;21.33;;;;;;;;5015959;28;45504;-65
2022/10/14 06:06:01;;;;;;;;;39.00;28.00;;;;;;;;5013871;28;45455;-65
2022/10/14 06:08:27;;;;;;;;;31.00;28.67;;;;;;;;5016776;28;45442;-66
2022/10/14 06:10:53;;;;;;;;;37.67;35.33;;;;;;;;5016076;28;45250;-65
2022/10/14 06:13:18;;;;;;;;;25.00;22.33;;;;;;;;5016879;28;45427;-65
2022/10/14 06:15:43;;;;;;;;;32.33;28.67;;;;;;;;5015409;28;46645;-65
2022/10/14 06:18:09;;;;;;;;;26.67;25.67;;;;;;;;5016420;28;45277;-65
2022/10/14 06:20:34;;;;;;;;;37.67;30.00;;;;;;;;5014717;28;45440;-65
2022/10/14 06:23:00;;;;;;;;;24.67;20.67;;;;;;;;5016991;28;45556;-69
2022/10/14 06:25:25;;;;;;;;;25.33;22.67;;;;;;;;5015919;28;45278;-69
2022/10/14 06:27:50;;;;;;;;;30.67;26.00;;;;;;;;5015821;28;45401;-70
2022/10/14 06:30:15;;;;;;;;;18.00;16.67;;;;;;;;5016298;28;45305;-70
2022/10/14 06:32:41;;;;;;;;;25.67;22.33;;;;;;;;5016846;28;45463;-71
2022/10/14 06:35:06;;;;;;;;;19.00;18.33;;;;;;;;5018555;28;45597;-69
2022/10/14 06:37:31;;;;;;;;;18.33;15.67;;;;;;;;5018855;28;45427;-70
2022/10/14 06:39:57;;;;;;;;;20.00;17.67;;;;;;;;5020066;28;45561;-70
2022/10/14 06:42:22;;;;;;;;;19.00;18.67;;;;;;;;5019009;28;45442;-71
2022/10/14 06:44:47;;;;;;;;;17.67;17.67;;;;;;;;5019882;28;46422;-69
2022/10/14 06:47:12;;;;;;;;;22.33;16.33;;;;;;;;5019876;28;45383;-70
2022/10/14 06:49:38;;;;;;;;;22.00;16.67;;;;;;;;5020257;28;45506;-69
2022/10/14 06:52:03;;;;;;;;;19.33;15.00;;;;;;;;5020178;28;45443;-68
2022/10/14 06:54:28;;;;;;;;;16.50;15.00;;;;;;;;5019962;28;46866;-69
2022/10/14 06:56:53;;;;;;;;;16.33;15.67;;;;;;;;5019776;28;45359;-68
2022/10/14 06:59:19;;;;;;;;;17.67;15.00;;;;;;;;5020011;28;45897;-68
2022/10/14 07:01:44;;;;;;;;;10.67;9.33;;;;;;;;5019828;28;45769;-69
2022/10/14 07:04:09;;;;;;;;;17.00;12.00;;;;;;;;5019779;28;45455;-68
2022/10/14 07:06:35;;;;;;;;;13.33;10.67;;;;;;;;5019826;28;45264;-68
2022/10/14 07:09:01;;;;;;;;;13.33;13.33;;;;;;;;5018292;28;45419;-68
2022/10/14 07:11:26;;;;;;;;;14.75;12.50;;;;;;;;5019733;28;45392;-67
2022/10/14 07:13:51;;;;;;;;;17.67;16.00;;;;;;;;5019611;28;46652;-67
2022/10/14 07:16:16;;;;;;;;;20.00;18.00;;;;;;;;5018183;28;45475;-66
2022/10/14 07:18:42;;;;;;;;;14.00;12.33;;;;;;;;5002685;28;45350;-67
2022/10/14 07:21:07;;;;;;;;;16.00;15.00;;;;;;;;5016523;28;45393;-64
2022/10/14 07:23:33;;;;;;;;;14.50;12.25;;;;;;;;5018789;28;45568;-66
2022/10/14 07:25:59;;;;;;;;;16.00;15.00;;;;;;;;5019171;28;45479;-68
2022/10/14 07:28:24;;;;;;;;;16.00;12.67;;;;;;;;5019033;28;45312;-73
2022/10/14 07:31:16;;;;;;;;;11.67;11.33;;;;;;;;5019122;28;45415;-73
2022/10/14 07:33:41;;;;;;;;;14.25;10.50;;;;;;;;5018081;28;46912;-66
2022/10/14 07:36:08;;;;;;;;;15.00;14.67;;;;;;;;5018909;28;45364;-69
2022/10/14 07:38:34;;;;;;;;;17.33;13.00;;;;;;;;5018861;28;45449;-68
2022/10/14 07:41:07;;;;;;;;;14.50;12.25;;;;;;;;5019337;28;45357;-70
2022/10/14 07:43:33;;;;;;;;;17.33;15.67;;;;;;;;5018704;28;45566;-69
2022/10/14 07:46:03;;;;;;;;;17.00;14.67;;;;;;;;5017575;28;45460;-69
2022/10/14 07:48:29;;;;;;;;;18.33;14.67;;;;;;;;5019248;28;45402;-70
2022/10/14 07:50:55;;;;;;;;;12.67;12.67;;;;;;;;5018990;28;45329;-69
2022/10/14 07:53:21;;;;;;;;;17.75;15.00;;;;;;;;5018724;28;46180;-69
2022/10/14 07:55:51;;;;;;;;;17.50;14.75;;;;;;;;5018360;28;45395;-70
2022/10/14 07:58:24;;;;;;;;;13.33;10.67;;;;;;;;5018812;28;45243;-69
2022/10/14 08:00:49;;;;;;;;;14.67;13.67;;;;;;;;5018770;28;45290;-70
2022/10/14 08:03:15;;;;;;;;;17.00;13.00;;;;;;;;5018450;28;45592;-69
2022/10/14 08:05:41;;;;;;;;;24.33;18.67;;;;;;;;5018493;28;45339;-69
2022/10/14 08:08:07;;;;;;;;;17.33;15.67;;;;;;;;5018868;28;45417;-71
2022/10/14 08:10:32;;;;;;;;;18.00;14.33;;;;;;;;5018811;28;45350;-72
2022/10/14 08:12:58;;;;;;;;;19.67;16.33;;;;;;;;5018295;28;45841;-72
2022/10/14 08:15:27;;;;;;;;;21.67;20.67;;;;;;;;5018564;28;45800;-72
2022/10/14 08:17:52;;;;;;;;;28.67;27.33;;;;;;;;5018331;28;45429;-71
2022/10/14 08:20:17;;;;;;;;;22.00;18.33;;;;;;;;5018727;28;45155;-72
2022/10/14 08:22:43;;;;;;;;;20.33;17.33;;;;;;;;5018147;28;45502;-69
2022/10/14 08:25:08;;;;;;;;;20.67;18.33;;;;;;;;5018523;28;45427;-72
2022/10/14 08:27:33;;;;;;;;;23.00;21.00;;;;;;;;5018345;28;45219;-70
2022/10/14 08:29:58;;;;;;;;;22.00;19.33;;;;;;;;5018401;28;45721;-71
2022/10/14 08:32:24;;;;;;;;;46.67;36.33;;;;;;;;5017251;28;45463;-71
2022/10/14 08:34:49;;;;;;;;;22.00;19.67;;;;;;;;4998160;28;45445;-72
2022/10/14 08:37:14;;;;;;;;;23.33;21.67;;;;;;;;4998754;28;45450;-72
2022/10/14 08:39:39;;;;;;;;;36.67;33.00;;;;;;;;4998655;28;45312;-71
2022/10/14 08:42:04;;;;;;;;;25.67;20.67;;;;;;;;4998130;28;45526;-70
2022/10/14 08:44:59;;;;;;;;;23.67;18.33;;;;;;;;4998504;28;45389;-70
2022/10/14 08:47:27;;;;;;;;;22.67;18.67;;;;;;;;5015883;28;45344;-71
2022/10/14 08:49:55;;;;;;;;;15.67;14.67;;;;;;;;5016121;28;45892;-72
2022/10/14 08:52:26;;;;;;;;;14.67;14.67;;;;;;;;5015734;28;46593;-71
2022/10/14 08:54:54;;;;;;;;;16.33;16.33;;;;;;;;5015875;28;45310;-70
2022/10/14 08:57:22;;;;;;;;;25.67;23.00;;;;;;;;5015296;28;45477;-69
2022/10/14 08:59:47;;;;;;;;;17.67;17.00;;;;;;;;5015318;28;45594;-69
2022/10/14 09:02:19;;;;;;;;;15.33;14.67;;;;;;;;5015368;28;46217;-71
2022/10/14 09:04:44;;;;;;;;;20.00;16.33;;;;;;;;5014655;28;45568;-70
2022/10/14 09:07:15;;;;;;;;;18.00;15.00;;;;;;;;5015876;28;45456;-70
2022/10/14 09:09:42;;;;;;;;;18.33;15.67;;;;;;;;5015808;28;45362;-71
2022/10/14 09:12:18;;;;;;;;;14.00;11.67;;;;;;;;5015433;28;46539;-70
2022/10/14 09:14:53;;;;;;;;;14.33;14.33;;;;;;;;5015607;28;45433;-70
2022/10/14 09:17:20;;;;;;;;;22.67;16.33;;;;;;;;5015471;28;45337;-70
2022/10/14 09:19:49;;;;;;;;;20.00;14.33;;;;;;;;5015707;28;45365;-70
2022/10/14 09:22:14;;;;;;;;;20.00;17.67;;;;;;;;5015007;28;45744;-70
2022/10/14 09:24:40;;;;;;;;;17.67;13.00;;;;;;;;5000282;28;45369;-70
2022/10/14 09:27:11;;;;;;;;;18.00;13.67;;;;;;;;4997793;28;45195;-70
2022/10/14 09:29:40;;;;;;;;;18.67;17.33;;;;;;;;4997577;28;45363;-70
2022/10/14 09:32:07;;;;;;;;;20.00;18.00;;;;;;;;4997335;28;46330;-70
2022/10/14 09:34:37;;;;;;;;;21.33;18.33;;;;;;;;4997418;28;45364;-70
2022/10/14 09:37:22;;;;;;;;;15.67;15.67;;;;;;;;4997620;28;45250;-70
2022/10/14 09:39:48;;;;;;;;;23.67;17.33;;;;;;;;5000662;28;45476;-70
2022/10/14 09:42:18;;;;;;;;;21.67;17.33;;;;;;;;4997254;28;45927;-71
2022/10/14 09:44:43;;;;;;;;;20.33;20.00;;;;;;;;4997537;28;45301;-70
2022/10/14 09:47:11;;;;;;;;;22.33;18.67;;;;;;;;4997493;28;46088;-71
2022/10/14 09:49:37;;;;;;;;;18.33;15.00;;;;;;;;4997517;28;45392;-67
2022/10/14 09:52:03;;;;;;;;;24.67;19.67;;;;;;;;4996770;28;45376;-69
2022/10/14 09:54:30;;;;;;;;;20.00;17.67;;;;;;;;4997204;28;45333;-69
2022/10/14 09:57:14;;;;;;;;;21.00;16.67;;;;;;;;4997245;28;45297;-69
2022/10/14 09:59:48;;;;;;;;;20.33;14.33;;;;;;;;4997026;28;45614;-69
2022/10/14 10:02:19;;;;;;;;;22.00;19.00;;;;;;;;4996926;28;46700;-69
2022/10/14 10:04:46;;;;;;;;;20.00;15.67;;;;;;;;4997219;28;45436;-70
2022/10/14 10:07:40;;;;;;;;;21.67;20.00;;;;;;;;4997209;28;45356;-69
2022/10/14 10:10:16;;;;;;;;;27.67;21.33;;;;;;;;5017045;28;45427;-69
2022/10/14 10:12:45;;;;;;;;;21.67;18.33;;;;;;;;5018244;28;46523;-69
2022/10/14 10:15:16;;;;;;;;;22.33;16.00;;;;;;;;5018396;28;45235;-69
2022/10/14 10:17:41;;;;;;;;;21.00;21.00;;;;;;;;5018049;28;45461;-69
2022/10/14 10:20:08;;;;;;;;;30.00;24.00;;;;;;;;5018491;28;45443;-69
2022/10/14 10:22:37;;;;;;;;;20.33;15.33;;;;;;;;5018147;28;46518;-69
2022/10/14 10:25:03;;;;;;;;;20.33;18.67;;;;;;;;5018007;28;45470;-71
2022/10/14 10:27:28;;;;;;;;;27.67;21.67;;;;;;;;5018338;28;45482;-71
2022/10/14 10:29:56;;;;;;;;;22.00;20.67;;;;;;;;5018202;28;45556;-71
2022/10/14 10:32:21;;;;;;;;;22.67;22.33;;;;;;;;5017905;28;46358;-69
2022/10/14 10:34:46;;;;;;;;;24.33;20.33;;;;;;;;5017966;28;45413;-70
2022/10/14 10:37:12;;;;;;;;;19.67;14.33;;;;;;;;5018274;28;45491;-73
2022/10/14 10:39:43;;;;;;;;;16.67;14.33;;;;;;;;5018212;28;45339;-78
2022/10/14 10:42:17;;;;;;;;;16.67;15.33;;;;;;;;5017994;28;46629;-78
2022/10/14 10:44:46;;;;;;;;;18.33;15.00;;;;;;;;5017481;28;45531;-78
2022/10/14 10:47:21;;;;;;;;;13.67;9.33;;;;;;;;5003667;28;45399;-75
2022/10/14 10:49:49;;;;;;;;;16.00;12.33;;;;;;;;5000522;28;45334;-71
2022/10/14 10:52:17;;;;;;;;;13.75;11.25;;;;;;;;4999925;28;46550;-67
2022/10/14 10:54:42;;;;;;;;;12.50;11.25;;;;;;;;4999917;28;45420;-69
2022/10/14 10:57:29;;;;;;;;;11.25;11.25;;;;;;;;5000086;28;45478;-68
2022/10/14 11:00:11;;;;;;;;;14.00;9.75;;;;;;;;5000185;28;45426;-69
2022/10/14 11:02:36;;;;;;;;;10.75;9.00;;;;;;;;4999590;28;46547;-70
2022/10/14 11:05:07;;;;;;;;;6.50;6.00;;;;;;;;4999971;28;45895;-69
2022/10/14 11:13:28;;;;;;;;;16.33;10.33;;;;;;;;4999513;28;45854;-70
2022/10/14 11:16:01;;;;;;;;;47.00;38.67;;;;;;;;4999807;28;45368;-70
2022/10/14 11:18:32;;;;;;;;;10.00;9.50;;;;;;;;4999602;28;45409;-71
2022/10/14 11:21:00;;;;;;;;;9.75;7.75;;;;;;;;4999821;28;45214;-71
2022/10/14 11:23:39;;;;;;;;;3.00;3.00;;;;;;;;4999587;28;46600;-70
2022/10/14 11:26:20;;;;;;;;;8.00;7.25;;;;;;;;4999700;28;45345;-70
2022/10/14 11:28:52;;;;;;;;;11.33;9.00;;;;;;;;4999477;28;45512;-70
2022/10/14 11:31:45;;;;;;;;;13.00;9.00;;;;;;;;4999655;28;45349;-70
2022/10/14 11:34:23;;;;;;;;;12.33;9.67;;;;;;;;4999618;28;45433;-70
2022/10/14 11:36:51;;;;;;;;;12.33;9.67;;;;;;;;4999332;28;45202;-71
2022/10/14 11:39:16;;;;;;;;;14.00;11.67;;;;;;;;4999641;28;45274;-70
2022/10/14 11:41:48;;;;;;;;;12.67;9.00;;;;;;;;4999470;28;45431;-70
2022/10/14 11:44:17;;;;;;;;;10.00;10.00;;;;;;;;4999257;28;46718;-70
2022/10/14 11:46:45;;;;;;;;;10.25;9.50;;;;;;;;4999155;28;45411;-71
2022/10/14 11:49:19;;;;;;;;;13.00;8.50;;;;;;;;4999193;28;45344;-70
2022/10/14 11:51:51;;;;;;;;;11.00;11.00;;;;;;;;4999377;28;45479;-71
2022/10/14 11:54:19;;;;;;;;;12.33;12.33;;;;;;;;4999207;28;46365;-71
2022/10/14 11:56:56;;;;;;;;;13.33;13.33;;;;;;;;4999117;28;45389;-71
2022/10/14 12:02:16;;;;;;;;;6.50;6.50;;;;;;;;4999031;28;45455;-69
2022/10/14 12:04:45;;;;;;;;;9.75;7.00;;;;;;;;4998906;28;46308;-71
2022/10/14 12:07:13;;;;;;;;;8.50;7.50;;;;;;;;4999096;28;45322;-70
2022/10/14 12:09:43;;;;;;;;;7.00;7.00;;;;;;;;4999108;28;45333;-70
2022/10/14 12:12:11;;;;;;;;;9.75;8.50;;;;;;;;4999001;28;45423;-71
2022/10/14 12:14:39;;;;;;;;;7.00;7.00;;;;;;;;4998877;28;47352;-70
2022/10/14 12:17:10;;;;;;;;;8.33;7.67;;;;;;;;4998833;28;45424;-70
2022/10/14 12:19:36;;;;;;;;;8.75;6.00;;;;;;;;4998736;28;45403;-70
2022/10/14 12:22:01;;;;;;;;;9.25;8.75;;;;;;;;4999150;28;45282;-71
2022/10/14 12:24:30;;;;;;;;;6.67;6.67;;;;;;;;4998642;28;45628;-70
2022/10/14 12:27:03;;;;;;;;;11.50;11.50;;;;;;;;4998672;28;45405;-71
2022/10/14 12:29:34;;;;;;;;;12.75;8.50;;;;;;;;4998637;28;45389;-71
2022/10/14 12:32:02;;;;;;;;;10.25;9.00;;;;;;;;4998198;28;45321;-70
2022/10/14 12:34:54;;;;;;;;;7.00;7.00;;;;;;;;4998424;28;45522;-71
2022/10/14 12:37:28;;;;;;;;;9.00;7.75;;;;;;;;4999072;28;45353;-70
2022/10/14 12:40:13;;;;;;;;;5.00;4.25;;;;;;;;4998710;28;45381;-70
2022/10/14 12:42:42;;;;;;;;;6.50;6.50;;;;;;;;4998641;28;45342;-70
2022/10/14 12:45:14;;;;;;;;;11.25;7.75;;;;;;;;4998087;28;45229;-70
2022/10/14 12:47:40;;;;;;;;;6.00;6.00;;;;;;;;4997983;28;45316;-70
2022/10/14 12:50:25;;;;;;;;;8.00;7.00;;;;;;;;4998449;28;45735;-70
2022/10/14 12:52:58;;;;;;;;;4.00;4.00;;;;;;;;4998478;28;45621;-70
2022/10/14 12:55:25;;;;;;;;;23.00;20.33;;;;;;;;4998006;28;46208;-70
2022/10/14 12:57:55;;;;;;;;;6.00;6.00;;;;;;;;4998323;28;45459;-70
2022/10/14 13:00:20;;;;;;;;;8.75;7.25;;;;;;;;4998213;28;45429;-70
2022/10/14 13:02:46;;;;;;;;;8.00;6.25;;;;;;;;4998243;28;45273;-70
2022/10/14 13:05:32;;;;;;;;;6.50;6.50;;;;;;;;4998133;28;46292;-70
2022/10/14 13:08:16;;;;;;;;;8.33;7.67;;;;;;;;4998103;28;45295;-70
2022/10/14 13:10:42;;;;;;;;;10.50;6.00;;;;;;;;4998246;28;45432;-70
2022/10/14 13:13:37;;;;;;;;;6.25;5.50;;;;;;;;4998340;28;45725;-71
2022/10/14 13:16:09;;;;;;;;;8.67;4.00;;;;;;;;5001257;28;45514;-70
2022/10/14 13:18:34;;;;;;;;;8.25;6.25;;;;;;;;4996250;28;45582;-70
2022/10/14 13:20:59;;;;;;;;;7.00;7.00;;;;;;;;4998044;28;45334;-71
2022/10/14 13:23:37;;;;;;;;;10.00;10.00;;;;;;;;4997941;28;45352;-70
2022/10/14 13:26:11;;;;;;;;;10.00;9.75;;;;;;;;4997752;28;45498;-71
2022/10/14 13:28:41;;;;;;;;;6.00;6.00;;;;;;;;4997613;28;45449;-70
2022/10/14 13:31:30;;;;;;;;;10.33;8.33;;;;;;;;4997912;28;45212;-70
2022/10/14 13:34:04;;;;;;;;;8.00;6.75;;;;;;;;5015568;28;45485;-70
2022/10/14 13:36:34;;;;;;;;;5.25;5.00;;;;;;;;5015168;28;45421;-70
2022/10/14 13:39:00;;;;;;;;;17.00;14.33;;;;;;;;5015123;28;45448;-71
2022/10/14 13:41:27;;;;;;;;;22.33;21.00;;;;;;;;5015363;28;45398;-70
2022/10/14 13:43:54;;;;;;;;;8.67;7.00;;;;;;;;5014288;28;45477;-71
2022/10/14 13:46:21;;;;;;;;;6.67;6.67;;;;;;;;5015391;28;45393;-70
2022/10/14 13:48:48;;;;;;;;;7.50;5.00;;;;;;;;5015031;28;45405;-70
2022/10/14 13:51:14;;;;;;;;;7.75;6.75;;;;;;;;5015171;28;45438;-70
2022/10/14 13:54:08;;;;;;;;;7.50;7.50;;;;;;;;5015479;28;45434;-69
2022/10/14 13:56:34;;;;;;;;;6.50;5.25;;;;;;;;4936963;28;45788;-70
2022/10/14 13:58:59;;;;;;;;;12.67;11.00;;;;;;;;4936611;28;45253;-70
2022/10/14 14:01:50;;;;;;;;;9.00;8.00;;;;;;;;4936810;28;45364;-70
2022/10/14 14:04:21;;;;;;;;;6.00;6.00;;;;;;;;4934669;28;45576;-70
2022/10/14 14:06:48;;;;;;;;;10.00;7.25;;;;;;;;4936700;28;46841;-70
2022/10/14 14:09:18;;;;;;;;;10.33;9.00;;;;;;;;4936733;28;45617;-70
2022/10/14 14:11:45;;;;;;;;;10.50;7.50;;;;;;;;4920437;28;45319;-70
2022/10/14 14:14:19;;;;;;;;;7.00;7.00;;;;;;;;4917678;28;45372;-69
2022/10/14 14:16:55;;;;;;;;;8.00;8.00;;;;;;;;4917028;28;46310;-69
2022/10/14 14:19:23;;;;;;;;;7.00;7.00;;;;;;;;4917033;28;45352;-70
2022/10/14 14:21:48;;;;;;;;;16.00;13.00;;;;;;;;4917124;28;45466;-70
2022/10/14 14:24:22;;;;;;;;;15.67;13.33;;;;;;;;4917318;28;45462;-70
2022/10/14 14:26:47;;;;;;;;;11.67;9.67;;;;;;;;4917024;28;47408;-70
2022/10/14 14:29:19;;;;;;;;;6.00;6.00;;;;;;;;4916768;28;45342;-70
2022/10/14 14:31:46;;;;;;;;;10.00;7.75;;;;;;;;4917187;28;45374;-70
2022/10/14 14:34:21;;;;;;;;;14.33;12.33;;;;;;;;5012306;28;45822;-70
2022/10/14 14:36:47;;;;;;;;;7.25;7.00;;;;;;;;4996766;28;45311;-70